METAR Data
IDs: Format: Raw Decoded Include TAF

Data at: 0425 UTC 07 Jun 2020

METAR for:KAEJ (Buena Vista/Central, CO, US)
Text:KAEJ 070415Z AUTO 12004KT 10SM CLR 15/M06 A2998 RMK AO2 T01461057
Temperature: 14.6°C ( 58°F)
Dewpoint: -5.7°C ( 22°F) [RH = 24%]
Pressure (altimeter):29.98 inches Hg (1015.3 mb)
Winds:from the ESE (120 degrees) at 5 MPH (4 knots; 2.1 m/s)
Visibility:10 or more sm (16+ km)
Ceiling:at least 12,000 feet AGL
Clouds:sky clear below 12,000 feet AGL
QC Flag:automated observation with no human augmentation